Time;durP1;ratioP1;P1;durP2;ratioP2;P2;SDS_P1;SDS_P2;PMS_P1;PMS_P2;Temp;Humidity;BMP_temperature;BMP_pressure;BME280_temperature;BME280_humidity;BME280_pressure;Samples;Min_cycle;Max_cycle;Signal;HPM_P1;HPM_P2
2021/12/19 00:01:23;;;;;;;99.97;60.20;;;;;;;-2.40;100.00;101188.34;5029337;28;20037;-76
2021/12/19 00:09:18;;;;;;;103.35;62.50;;;;;;;-2.57;100.00;101173.94;5034862;28;20042;-76
2021/12/19 00:11:43;;;;;;;111.03;65.20;;;;;;;-2.58;100.00;101174.81;5017420;28;20036;-76
2021/12/19 00:14:09;;;;;;;118.32;67.65;;;;;;;-2.62;100.00;101172.28;5017419;28;20037;-77
2021/12/19 00:16:34;;;;;;;113.00;66.63;;;;;;;-2.64;100.00;101168.88;5035974;28;20485;-77
2021/12/19 00:19:00;;;;;;;113.75;67.10;;;;;;;-2.62;100.00;101161.94;5021471;28;20724;-78
2021/12/19 00:21:26;;;;;;;115.13;65.53;;;;;;;-2.58;100.00;101168.78;5042881;28;20087;-78
2021/12/19 00:23:53;;;;;;;112.57;65.07;;;;;;;-2.54;100.00;101154.97;5046181;28;20401;-78
2021/12/19 00:26:19;;;;;;;118.75;66.88;;;;;;;-2.53;100.00;101154.06;5029176;28;20049;-78
2021/12/19 00:28:48;;;;;;;115.30;68.20;;;;;;;-2.56;100.00;101141.19;5045275;28;20034;-76
2021/12/19 00:31:13;;;;;;;110.80;69.18;;;;;;;-2.61;100.00;101143.84;5042152;28;20050;-76
2021/12/19 00:33:41;;;;;;;116.70;67.65;;;;;;;-2.61;100.00;101137.81;5040831;28;20026;-77
2021/12/19 00:36:09;;;;;;;113.13;67.25;;;;;;;-2.60;100.00;101134.38;5040024;28;20102;-77
2021/12/19 00:38:35;;;;;;;114.65;69.82;;;;;;;-2.59;100.00;101131.75;5040505;28;20034;-78
2021/12/19 00:41:04;;;;;;;119.68;69.57;;;;;;;-2.54;100.00;101121.34;5039688;28;20029;-79
2021/12/19 00:43:43;;;;;;;115.70;68.68;;;;;;;-2.54;100.00;101121.34;5020965;28;20036;-77
2021/12/19 00:46:10;;;;;;;118.35;66.63;;;;;;;-2.57;100.00;101123.97;5016603;28;20044;-78
2021/12/19 00:48:41;;;;;;;125.75;70.18;;;;;;;-2.64;100.00;101117.19;5032378;28;20033;-77
2021/12/19 00:51:10;;;;;;;126.80;73.47;;;;;;;-2.66;100.00;101113.78;5017584;28;20489;-79
2021/12/19 00:53:37;;;;;;;126.95;72.70;;;;;;;-2.70;100.00;101110.38;5031903;28;20030;-76
2021/12/19 00:56:03;;;;;;;129.90;73.22;;;;;;;-2.71;100.00;101105.25;5017618;28;20103;-78
2021/12/19 00:58:30;;;;;;;131.68;73.07;;;;;;;-2.72;100.00;101104.41;5017706;28;20041;-76
2021/12/19 01:00:55;;;;;;;131.45;71.03;;;;;;;-2.73;100.00;101101.81;5035577;28;20029;-77
2021/12/19 01:03:21;;;;;;;134.40;75.47;;;;;;;-2.74;100.00;101102.69;5002305;28;20048;-77
2021/12/19 01:05:48;;;;;;;130.77;72.85;;;;;;;-2.72;100.00;101100.94;5036658;28;20033;-79
2021/12/19 01:08:14;;;;;;;127.38;70.05;;;;;;;-2.74;100.00;101106.13;5020718;28;20096;-78
2021/12/19 01:10:43;;;;;;;121.57;68.18;;;;;;;-2.79;100.00;101117.41;5022003;28;20029;-78
2021/12/19 01:13:09;;;;;;;127.07;67.75;;;;;;;-2.81;100.00;101106.22;5019436;28;20037;-76
2021/12/19 01:15:35;;;;;;;126.43;68.93;;;;;;;-2.85;100.00;101107.16;5031835;28;20021;-78
2021/12/19 01:18:02;;;;;;;123.15;67.22;;;;;;;-2.89;100.00;101107.19;5036543;28;20029;-76
2021/12/19 01:20:30;;;;;;;124.25;69.20;;;;;;;-2.90;100.00;101110.66;5027131;28;20465;-78
2021/12/19 01:22:56;;;;;;;121.32;69.90;;;;;;;-2.85;100.00;101117.50;5039963;28;20029;-76
2021/12/19 01:25:22;;;;;;;120.53;67.13;;;;;;;-2.83;100.00;101105.41;5040746;28;20041;-78
2021/12/19 01:27:49;;;;;;;118.70;66.85;;;;;;;-2.86;100.00;101102.88;5022530;28;20038;-77
2021/12/19 01:30:17;;;;;;;118.95;69.05;;;;;;;-2.85;100.00;101107.16;5025979;28;20393;-79
2021/12/19 01:32:46;;;;;;;123.80;70.68;;;;;;;-2.85;100.00;101107.16;5041587;28;20060;-78
2021/12/19 01:35:14;;;;;;;114.22;66.55;;;;;;;-2.84;100.00;101107.16;5040897;28;20041;-78
2021/12/19 01:37:40;;;;;;;124.25;69.80;;;;;;;-2.85;100.00;101102.84;5042048;28;20401;-77
2021/12/19 01:40:07;;;;;;;124.97;67.90;;;;;;;-2.82;100.00;101101.94;5041632;28;20092;-78
2021/12/19 01:42:39;;;;;;;127.30;70.18;;;;;;;-2.80;100.00;101106.22;5043031;28;20044;-77
2021/12/19 01:45:07;;;;;;;162.15;58.63;;;;;;;-2.84;100.00;101104.56;5038858;28;20037;-78
2021/12/19 01:47:33;;;;;;;169.82;57.70;;;;;;;-2.99;100.00;101100.44;5043387;28;20051;-77
2021/12/19 01:49:59;;;;;;;111.13;59.55;;;;;;;-3.04;100.00;101091.91;5042007;28;20128;-76
2021/12/19 01:52:28;;;;;;;129.02;63.40;;;;;;;-2.97;100.00;101093.53;5042226;28;20067;-78
2021/12/19 01:54:55;;;;;;;125.30;62.93;;;;;;;-2.96;100.00;101087.50;5038606;28;20037;-78
2021/12/19 01:57:22;;;;;;;178.00;61.58;;;;;;;-2.91;100.00;101090.88;5037071;28;20041;-77
2021/12/19 01:59:48;;;;;;;172.60;62.30;;;;;;;-3.00;100.00;101087.53;5039786;28;20037;-76
2021/12/19 02:02:14;;;;;;;130.88;63.65;;;;;;;-2.99;100.00;101081.50;5023440;28;20529;-77
2021/12/19 02:04:42;;;;;;;125.30;65.95;;;;;;;-2.91;100.00;101077.97;5042650;28;20041;-77
2021/12/19 02:07:09;;;;;;;120.72;66.15;;;;;;;-2.85;100.00;101076.16;5043290;28;20087;-78
2021/12/19 02:09:35;;;;;;;121.30;64.78;;;;;;;-2.84;100.00;101083.03;5015614;28;20393;-78
2021/12/19 02:12:03;;;;;;;117.97;64.85;;;;;;;-2.85;100.00;101084.75;5042091;28;20037;-78
2021/12/19 02:14:29;;;;;;;110.55;63.35;;;;;;;-2.82;100.00;101073.50;5041645;28;20083;-77
2021/12/19 02:16:55;;;;;;;123.75;62.55;;;;;;;-2.80;100.00;101066.59;5043090;28;20029;-76
2021/12/19 02:19:22;;;;;;;137.82;63.15;;;;;;;-2.82;100.00;101065.78;5042821;28;20034;-77
2021/12/19 02:21:49;;;;;;;171.07;62.08;;;;;;;-2.84;100.00;101063.22;5044226;28;20061;-78
2021/12/19 02:24:15;;;;;;;166.98;65.63;;;;;;;-2.92;100.00;101065.91;5009865;28;20091;-76
2021/12/19 02:26:41;;;;;;;172.85;65.10;;;;;;;-2.96;100.00;101066.84;5044458;28;20084;-77
2021/12/19 02:29:07;;;;;;;173.60;63.25;;;;;;;-3.02;100.00;101064.34;5042880;28;20041;-78
2021/12/19 02:31:34;;;;;;;207.80;66.65;;;;;;;-3.04;100.00;101065.22;5025341;28;20025;-79
2021/12/19 02:34:39;;;;;;;135.13;65.93;;;;;;;-3.04;100.00;101066.09;5044145;28;20037;-78
2021/12/19 02:37:02;;;;;;;144.40;63.15;;;;;;;-3.00;100.00;101062.56;5041595;28;20052;-78
2021/12/19 02:40:41;;;;;;;143.32;64.22;;;;;;;-3.12;100.00;101061.91;5044287;28;20072;-78
2021/12/19 02:48:13;;;;;;;124.82;61.97;;;;;;;-3.13;100.00;101055.03;5035240;28;20072;-77
2021/12/19 02:50:46;;;;;;;128.45;63.75;;;;;;;-3.12;100.00;101057.56;5012480;28;20116;-78
2021/12/19 02:53:12;;;;;;;118.45;60.67;;;;;;;-3.13;100.00;101050.72;5027832;28;20176;-78
2021/12/19 02:55:38;;;;;;;141.55;65.03;;;;;;;-3.10;100.00;101045.50;5031340;28;20029;-78
2021/12/19 02:58:04;;;;;;;133.30;62.78;;;;;;;-3.14;100.00;101033.53;5030374;28;20036;-78
2021/12/19 03:00:29;;;;;;;111.13;61.03;;;;;;;-3.17;100.00;101033.53;5030463;28;20033;-78
2021/12/19 03:02:55;;;;;;;115.93;64.78;;;;;;;-3.21;100.00;101037.06;5013184;28;20037;-78
2021/12/19 03:05:21;;;;;;;173.65;67.30;;;;;;;-3.16;100.00;101035.25;5030559;28;20045;-78
2021/12/19 03:07:49;;;;;;;232.40;68.30;;;;;;;-3.14;100.00;101027.50;5030793;28;20021;-77
2021/12/19 03:18:17;;;;;;;181.68;69.00;;;;;;;-2.88;100.00;101025.38;5027943;28;20068;-77
2021/12/19 03:20:44;;;;;;;168.77;70.35;;;;;;;-2.81;100.00;101010.66;5030680;28;20147;-78
2021/12/19 03:23:12;;;;;;;211.20;70.72;;;;;;;-2.80;100.00;101007.19;5030210;28;20108;-76
2021/12/19 03:25:38;;;;;;;177.27;71.40;;;;;;;-2.79;100.00;101011.50;5030916;28;20208;-79
2021/12/19 03:28:06;;;;;;;147.13;71.82;;;;;;;-2.73;100.00;101008.81;5030200;28;20107;-79
2021/12/19 03:30:32;;;;;;;203.77;68.80;;;;;;;-2.78;100.00;101005.44;5029197;28;20821;-78
2021/12/19 03:32:58;;;;;;;196.35;70.30;;;;;;;-2.97;100.00;101008.31;5030432;28;20038;-77
2021/12/19 03:35:24;;;;;;;191.63;68.72;;;;;;;-3.02;100.00;101002.38;5029886;28;20041;-76
2021/12/19 03:37:52;;;;;;;185.27;69.60;;;;;;;-3.00;100.00;101000.59;5030293;28;20033;-79
2021/12/19 03:40:24;;;;;;;171.70;68.47;;;;;;;-2.98;100.00;100998.84;5030037;28;20428;-78
2021/12/19 03:42:53;;;;;;;184.55;69.10;;;;;;;-3.01;100.00;100988.59;5030578;28;20041;-78
2021/12/19 03:45:23;;;;;;;172.02;70.88;;;;;;;-2.96;100.00;100991.94;5029360;28;20033;-77
2021/12/19 03:47:49;;;;;;;180.10;68.85;;;;;;;-2.95;100.00;100983.31;5012222;28;20032;-77
2021/12/19 03:50:20;;;;;;;194.20;66.80;;;;;;;-2.96;100.00;100986.78;5029537;28;20037;-78
2021/12/19 03:52:46;;;;;;;184.23;64.90;;;;;;;-3.00;100.00;100981.66;5030313;28;20038;-75
2021/12/19 03:55:12;;;;;;;177.68;64.53;;;;;;;-3.06;100.00;100980.03;5033335;28;20063;-78
2021/12/19 03:57:37;;;;;;;131.75;62.88;;;;;;;-3.00;100.00;100985.09;5033846;28;20026;-78
2021/12/19 04:00:08;;;;;;;136.55;65.78;;;;;;;-2.93;100.00;100986.72;5032943;28;20030;-78
2021/12/19 04:02:33;;;;;;;128.75;61.60;;;;;;;-2.89;100.00;100990.94;5033148;28;20532;-77
2021/12/19 04:05:00;;;;;;;135.35;61.53;;;;;;;-2.89;100.00;100978.03;5033253;28;20036;-76
2021/12/19 04:07:27;;;;;;;130.18;62.42;;;;;;;-2.91;100.00;100974.63;5032514;28;20532;-78
2021/12/19 04:09:53;;;;;;;111.90;59.38;;;;;;;-2.90;100.00;100968.59;5032692;28;20354;-78
2021/12/19 04:12:20;;;;;;;113.60;58.25;;;;;;;-2.86;100.00;100971.97;5032602;28;20056;-77
2021/12/19 04:14:45;;;;;;;103.47;58.45;;;;;;;-2.86;100.00;100971.13;5014787;28;20449;-78
2021/12/19 04:17:11;;;;;;;121.97;57.25;;;;;;;-2.91;100.00;100961.72;5032865;28;20040;-78
2021/12/19 04:19:36;;;;;;;154.02;60.80;;;;;;;-3.07;100.00;100957.69;5033530;28;20060;-78
2021/12/19 04:22:02;;;;;;;132.85;57.17;;;;;;;-3.19;100.00;100952.69;5033446;28;20673;-78
2021/12/19 04:24:28;;;;;;;108.55;56.40;;;;;;;-3.19;100.00;100944.09;5033227;28;20450;-79
2021/12/19 04:26:54;;;;;;;131.50;58.53;;;;;;;-3.15;100.00;100938.88;5015644;28;20033;-78
2021/12/19 04:29:22;;;;;;;152.90;54.88;;;;;;;-3.22;100.00;100942.41;5030979;28;20044;-76
2021/12/19 04:31:47;;;;;;;132.40;56.80;;;;;;;-3.22;100.00;100934.66;5022010;28;20034;-78
2021/12/19 04:34:13;;;;;;;121.07;55.47;;;;;;;-3.38;100.00;100949.53;5023846;28;20335;-78
2021/12/19 04:36:42;;;;;;;136.00;55.30;;;;;;;-3.53;100.00;100935.97;5024636;28;20063;-78
2021/12/19 04:57:34;;;;;;;122.85;51.72;;;;;;;-3.51;100.00;100931.66;5031779;28;20033;-77
2021/12/19 05:00:13;;;;;;;105.32;52.92;;;;;;;-3.60;100.00;100924.06;5032243;28;20033;-78
2021/12/19 05:16:23;;;;;;;106.10;54.70;;;;;;;-3.43;100.00;100902.28;4978073;28;20062;-78
2021/12/19 05:18:51;;;;;;;146.88;56.53;;;;;;;-3.46;100.00;100896.31;4979580;28;20031;-78
2021/12/19 05:21:20;;;;;;;108.78;53.63;;;;;;;-3.47;100.00;100899.75;4980450;28;20137;-78
2021/12/19 05:26:14;;;;;;;96.35;55.28;;;;;;;-3.47;100.00;100905.78;4977869;28;20039;-78
2021/12/19 05:28:39;;;;;;;110.80;56.03;;;;;;;-3.48;100.00;100901.50;4978210;28;20038;-78
2021/12/19 05:31:05;;;;;;;108.13;56.13;;;;;;;-3.44;100.00;100904.88;4985110;28;20218;-77
2021/12/19 05:33:30;;;;;;;99.97;55.30;;;;;;;-3.43;100.00;100902.28;4989263;28;20038;-78
2021/12/19 05:44:10;;;;;;;101.07;54.00;;;;;;;-3.39;100.00;100918.56;4989091;28;20045;-76
2021/12/19 05:46:53;;;;;;;99.88;49.72;;;;;;;-3.50;100.00;100889.50;5029940;28;20056;-78
2021/12/19 05:49:19;;;;;;;99.05;51.70;;;;;;;-3.51;100.00;100893.81;5031787;28;20509;-78
2021/12/19 05:51:46;;;;;;;90.60;51.35;;;;;;;-3.45;100.00;100888.56;5013819;28;20091;-78
2021/12/19 05:54:11;;;;;;;106.68;51.00;;;;;;;-3.46;100.00;100892.00;5031079;28;20029;-78
2021/12/19 05:56:37;;;;;;;128.45;51.20;;;;;;;-3.54;100.00;100882.69;5037408;28;20366;-78
2021/12/19 05:59:02;;;;;;;99.65;51.17;;;;;;;-3.57;100.00;100877.56;5038115;28;20029;-78
2021/12/19 06:01:28;;;;;;;89.55;53.00;;;;;;;-3.61;100.00;100881.06;5030949;28;20504;-78
2021/12/19 06:03:54;;;;;;;86.55;50.03;;;;;;;-3.64;100.00;100875.94;5030516;28;20041;-78
2021/12/19 06:06:21;;;;;;;88.07;51.50;;;;;;;-3.64;100.00;100881.09;5012970;28;20048;-78
2021/12/19 06:08:47;;;;;;;93.45;51.13;;;;;;;-3.68;100.00;100875.13;5031244;28;20045;-77
2021/12/19 06:11:14;;;;;;;81.43;48.65;;;;;;;-3.76;100.00;100867.50;5030770;28;20047;-78
2021/12/19 06:13:40;;;;;;;84.03;49.85;;;;;;;-3.81;100.00;100881.31;5030997;28;20021;-76
2021/12/19 06:16:07;;;;;;;82.43;48.13;;;;;;;-3.84;100.00;100883.97;5030069;28;20049;-77
2021/12/19 06:18:33;;;;;;;99.30;50.95;;;;;;;-3.87;100.00;100884.00;5030658;28;20040;-77
2021/12/19 06:20:58;;;;;;;94.03;53.88;;;;;;;-3.80;100.00;100881.31;5030195;28;20021;-78
2021/12/19 06:23:24;;;;;;;92.88;52.45;;;;;;;-3.78;100.00;100869.25;5030066;28;20041;-77
2021/12/19 06:25:49;;;;;;;88.20;50.47;;;;;;;-3.85;100.00;100867.63;5030315;28;20057;-78
2021/12/19 06:28:17;;;;;;;93.18;53.83;;;;;;;-3.86;100.00;100860.75;5030801;28;20033;-77
2021/12/19 06:30:43;;;;;;;109.53;54.53;;;;;;;-3.89;100.00;100850.50;5029985;28;20045;-78
2021/12/19 06:33:11;;;;;;;92.13;53.00;;;;;;;-3.88;100.00;100852.19;5012482;28;20045;-78
2021/12/19 06:35:36;;;;;;;90.28;51.85;;;;;;;-3.81;100.00;100856.38;5030530;28;20025;-77
2021/12/19 06:38:03;;;;;;;99.70;52.55;;;;;;;-3.77;100.00;100850.31;5030176;28;20040;-77
2021/12/19 06:40:29;;;;;;;88.72;51.65;;;;;;;-3.78;100.00;100850.34;5030274;28;20485;-76
2021/12/19 06:42:55;;;;;;;81.50;50.53;;;;;;;-3.76;100.00;100849.44;5030331;28;20043;-77
2021/12/19 06:45:21;;;;;;;81.20;47.38;;;;;;;-3.76;100.00;100852.00;5029924;28;20029;-80
2021/12/19 06:47:47;;;;;;;86.90;49.88;;;;;;;-3.76;100.00;100852.00;5030001;28;20519;-77
2021/12/19 06:50:15;;;;;;;74.65;46.17;;;;;;;-3.86;100.00;100834.97;5029223;28;20052;-78
2021/12/19 06:52:42;;;;;;;76.25;46.58;;;;;;;-3.87;100.00;100828.09;5022308;28;20053;-78
2021/12/19 06:55:10;;;;;;;74.50;47.00;;;;;;;-3.82;100.00;100828.88;5018622;28;20131;-77
2021/12/19 06:57:35;;;;;;;72.32;45.38;;;;;;;-3.84;100.00;100825.50;5009224;28;20028;-78
2021/12/19 07:00:06;;;;;;;75.72;46.55;;;;;;;-3.85;100.00;100821.22;5030453;28;20128;-78
2021/12/19 07:02:33;;;;;;;79.18;46.17;;;;;;;-3.81;100.00;100828.03;5030374;28;20025;-76
2021/12/19 07:04:58;;;;;;;81.10;47.60;;;;;;;-3.80;100.00;100828.88;5031228;28;20441;-77
2021/12/19 07:07:24;;;;;;;83.78;49.72;;;;;;;-3.82;100.00;100834.03;5030629;28;20041;-79
2021/12/19 07:09:50;;;;;;;78.55;47.65;;;;;;;-3.79;100.00;100826.28;5030566;28;20033;-78
2021/12/19 07:12:17;;;;;;;75.78;45.88;;;;;;;-3.78;100.00;100832.28;5030837;28;20026;-79
2021/12/19 07:14:43;;;;;;;80.25;47.70;;;;;;;-3.83;100.00;100828.94;5031044;28;20056;-79
2021/12/19 07:17:10;;;;;;;78.13;46.42;;;;;;;-3.89;100.00;100819.56;5031003;28;20038;-78
2021/12/19 07:19:36;;;;;;;76.93;46.88;;;;;;;-3.85;100.00;100816.06;5030967;28;20041;-79
2021/12/19 07:22:01;;;;;;;80.80;48.25;;;;;;;-3.83;100.00;100816.88;5030818;28;20026;-78
2021/12/19 07:24:27;;;;;;;82.40;47.88;;;;;;;-3.83;100.00;100823.78;5030001;28;20041;-78
2021/12/19 07:26:52;;;;;;;75.25;45.78;;;;;;;-3.86;100.00;100824.66;5029942;28;20440;-77
2021/12/19 07:29:18;;;;;;;79.47;48.20;;;;;;;-3.88;100.00;100818.66;5032697;28;20064;-76
2021/12/19 07:31:44;;;;;;;75.50;46.28;;;;;;;-3.85;100.00;100808.31;5035843;28;20124;-79
2021/12/19 07:34:10;;;;;;;78.25;45.33;;;;;;;-3.79;100.00;100807.38;5036125;28;20066;-78
2021/12/19 07:36:40;;;;;;;82.32;47.65;;;;;;;-3.73;100.00;100802.13;5037717;28;20052;-78
2021/12/19 07:39:10;;;;;;;82.72;49.10;;;;;;;-3.77;100.00;100809.03;5030144;28;20042;-78
2021/12/19 07:41:36;;;;;;;81.63;45.45;;;;;;;-3.94;100.00;100805.00;5022500;28;20442;-77
2021/12/19 07:44:01;;;;;;;77.35;47.25;;;;;;;-4.09;100.00;100806.09;5034354;28;20057;-77
2021/12/19 07:46:27;;;;;;;83.50;48.63;;;;;;;-4.15;100.00;100798.44;5033641;28;20469;-76
2021/12/19 07:48:52;;;;;;;95.20;50.83;;;;;;;-4.13;100.00;100788.97;5034155;28;20041;-77
2021/12/19 07:51:18;;;;;;;81.70;47.75;;;;;;;-4.08;100.00;100792.31;5033757;28;20037;-79
2021/12/19 07:53:44;;;;;;;87.35;50.45;;;;;;;-4.04;100.00;100788.81;5016956;28;20037;-78
2021/12/19 07:56:09;;;;;;;90.15;51.92;;;;;;;-4.06;100.00;100790.56;5033560;28;20098;-78
2021/12/19 07:58:35;;;;;;;84.65;49.08;;;;;;;-4.00;100.00;100793.06;5033826;28;20036;-78
2021/12/19 08:01:00;;;;;;;85.95;50.30;;;;;;;-3.89;100.00;100788.63;5034046;28;20037;-79
2021/12/19 08:03:26;;;;;;;82.53;47.67;;;;;;;-3.83;100.00;100783.34;5033864;28;20025;-79
2021/12/19 08:05:51;;;;;;;79.68;47.60;;;;;;;-3.78;100.00;100779.00;5030530;28;20458;-80
2021/12/19 08:08:21;;;;;;;81.47;48.70;;;;;;;-3.72;100.00;100781.47;4659519;28;10000019;-80
2021/12/19 08:13:13;;;;;;;83.47;49.22;;;;;;;-3.62;100.00;100771.00;5019945;28;20091;-79
2021/12/19 08:15:39;;;;;;;80.80;48.08;;;;;;;-3.58;100.00;100778.66;5020277;28;20120;-80
2021/12/19 08:18:06;;;;;;;78.00;48.95;;;;;;;-3.55;100.00;100767.44;5024765;28;20077;-79
2021/12/19 08:20:32;;;;;;;83.03;49.80;;;;;;;-3.51;100.00;100774.25;5020338;28;20037;-79
2021/12/19 08:22:58;;;;;;;82.13;48.17;;;;;;;-3.49;100.00;100767.34;5016890;28;20359;-77
2021/12/19 08:25:26;;;;;;;85.60;49.22;;;;;;;-3.45;100.00;100769.00;4999291;28;20050;-80
2021/12/19 08:27:52;;;;;;;74.95;46.05;;;;;;;-3.44;100.00;100770.69;5022200;28;20037;-78
2021/12/19 08:30:18;;;;;;;77.10;46.50;;;;;;;-3.39;100.00;100768.88;5022941;28;20133;-78
2021/12/19 08:32:44;;;;;;;81.43;49.15;;;;;;;-3.37;100.00;100761.97;5019521;28;20478;-79
2021/12/19 08:35:13;;;;;;;82.38;47.97;;;;;;;-3.32;100.00;100761.03;5019652;28;20036;-79
2021/12/19 08:37:40;;;;;;;85.10;49.97;;;;;;;-3.30;100.00;100755.84;5027551;28;20030;-79
2021/12/19 08:40:10;;;;;;;80.13;47.67;;;;;;;-3.25;100.00;100750.59;5030575;28;20041;-78
2021/12/19 08:42:36;;;;;;;;;;;;;;;-3.23;100.00;100749.66;5026821;28;20419;-79
2021/12/19 08:45:02;;;;;;;76.55;46.63;;;;;;;-3.20;100.00;100739.31;5027604;28;19952;-78
2021/12/19 08:47:28;;;;;;;82.05;49.17;;;;;;;-3.14;100.00;100743.50;5019221;28;20922;-77
2021/12/19 08:49:53;;;;;;;84.35;50.42;;;;;;;-3.07;100.00;100745.94;5020071;28;20457;-78
2021/12/19 08:52:19;;;;;;;92.30;52.13;;;;;;;-2.96;100.00;100738.00;5021005;28;20044;-77
2021/12/19 08:54:44;;;;;;;81.00;50.77;;;;;;;-2.92;100.00;100734.47;4672095;28;10000213;-79
2021/12/19 08:57:10;;;;;;;85.03;52.15;;;;;;;-2.84;100.00;100727.44;4329728;28;10000590;-79
2021/12/19 08:59:35;;;;;;;82.40;50.17;;;;;;;-2.77;100.00;100729.00;5027431;28;20049;-79
2021/12/19 09:02:01;;;;;;;90.82;53.50;;;;;;;-2.72;100.00;100726.31;5019176;28;20041;-78
2021/12/19 09:04:30;;;;;;;87.85;52.83;;;;;;;-2.63;100.00;100736.47;5022815;28;20038;-79
2021/12/19 09:06:56;;;;;;;86.15;53.22;;;;;;;-2.57;100.00;100726.84;5017430;28;20029;-82
2021/12/19 09:09:23;;;;;;;94.03;57.33;;;;;;;-2.50;100.00;100728.44;5027699;28;20219;-80
2021/12/19 09:11:49;;;;;;;92.57;55.45;;;;;;;-2.43;100.00;100726.56;5010254;28;20022;-77
2021/12/19 09:14:15;;;;;;;89.55;54.28;;;;;;;-2.37;100.00;100708.34;5022236;28;20440;-76
2021/12/19 09:16:40;;;;;;;97.68;56.42;;;;;;;-2.30;100.00;100714.22;5020735;28;20108;-78
2021/12/19 09:19:06;;;;;;;93.75;55.72;;;;;;;-2.22;100.00;100707.13;5022554;28;20135;-79
2021/12/19 09:21:31;;;;;;;90.57;54.60;;;;;;;-2.13;100.00;100710.38;5021273;28;20604;-77
2021/12/19 09:23:57;;;;;;;92.63;54.90;;;;;;;-2.07;100.00;100711.97;5025325;28;20026;-78
2021/12/19 09:26:22;;;;;;;97.32;54.50;;;;;;;-1.98;100.00;100710.88;5020326;28;20052;-79
2021/12/19 09:28:48;;;;;;;93.10;54.72;;;;;;;-1.93;100.00;100709.88;5019848;28;20045;-80
2021/12/19 09:31:13;;;;;;;84.47;53.45;;;;;;;-1.86;100.00;100701.09;5024789;28;20151;-80
2021/12/19 09:33:39;;;;;;;90.28;54.22;;;;;;;-1.81;100.00;100703.56;5004223;28;20030;-79
2021/12/19 09:36:05;;;;;;;92.15;54.92;;;;;;;-1.74;100.00;100697.38;5020468;28;20120;-80
2021/12/19 09:38:30;;;;;;;89.28;52.92;;;;;;;-1.65;100.00;100705.75;5025723;28;20033;-75
2021/12/19 09:41:00;;;;;;;93.15;55.58;;;;;;;-1.59;100.00;100699.56;5019721;28;20389;-77
2021/12/19 09:43:42;;;;;;;83.20;53.70;;;;;;;-1.54;100.00;100702.91;5020416;28;20370;-77
2021/12/19 09:46:18;;;;;;;92.43;53.10;;;;;;;-1.46;100.00;100693.19;5023388;28;20151;-76
2021/12/19 09:48:47;;;;;;;97.85;55.22;;;;;;;-1.36;100.00;100686.91;5024250;28;20145;-76
2021/12/19 09:51:14;;;;;;;86.72;53.00;;;;;;;-1.25;100.00;100679.69;5021134;28;20140;-76
2021/12/19 09:53:40;;;;;;;89.80;51.50;;;;;;;-1.13;100.00;100677.66;5008442;28;20485;-77
2021/12/19 09:56:07;;;;;;;87.88;53.10;;;;;;;-1.04;100.00;100673.06;5021396;28;20041;-77
2021/12/19 09:58:35;;;;;;;84.80;50.35;;;;;;;-0.93;100.00;100664.97;5024621;28;20049;-75
2021/12/19 10:01:03;;;;;;;83.40;50.75;;;;;;;-0.81;100.00;100654.25;5021341;28;20025;-76
2021/12/19 10:03:29;;;;;;;86.38;52.08;;;;;;;-0.70;100.00;100656.53;5024938;28;20113;-75
2021/12/19 10:06:17;;;;;;;85.32;50.00;;;;;;;-0.57;100.00;100645.75;5019062;28;20072;-77
2021/12/19 10:08:44;;;;;;;77.82;48.65;;;;;;;-0.46;100.00;100638.50;5020622;28;20103;-77
2021/12/19 10:11:33;;;;;;;87.65;50.28;;;;;;;-0.34;100.00;100633.81;5024929;28;20033;-81
2021/12/19 10:13:58;;;;;;;82.57;50.58;;;;;;;-0.23;100.00;100636.91;5030264;28;20041;-83
2021/12/19 10:16:29;;;;;;;83.50;50.13;;;;;;;-0.15;100.00;100640.97;5029534;28;20069;-80
2021/12/19 10:18:58;;;;;;;84.75;50.60;;;;;;;-0.06;100.00;100634.66;5023617;28;20045;-81
2021/12/19 10:21:24;;;;;;;83.50;49.88;;;;;;;0.04;100.00;100625.66;5021086;28;20080;-81
2021/12/19 10:23:50;;;;;;;83.60;51.17;;;;;;;0.12;100.00;100623.66;5020173;28;20034;-81
2021/12/19 10:26:16;;;;;;;95.22;58.95;;;;;;;0.20;100.00;100619.06;5018783;28;20095;-81
2021/12/19 10:28:53;;;;;;;101.38;61.90;;;;;;;0.29;100.00;100630.91;5022848;28;20065;-80
2021/12/19 10:31:20;;;;;;;98.47;60.83;;;;;;;0.35;100.00;100620.31;5028801;28;20432;-80
2021/12/19 10:33:47;;;;;;;94.00;59.85;;;;;;;0.40;100.00;100613.19;5013414;28;20438;-80
2021/12/19 10:36:14;;;;;;;98.18;61.17;;;;;;;0.46;100.00;100612.13;5030619;28;20040;-80
2021/12/19 10:38:48;;;;;;;104.78;63.53;;;;;;;0.50;100.00;100609.38;5013845;28;20428;-80
2021/12/19 10:41:15;;;;;;;101.38;63.45;;;;;;;0.54;100.00;100610.94;5031627;28;20514;-79
2021/12/19 10:43:56;;;;;;;102.80;62.50;;;;;;;0.59;100.00;100600.41;5031953;28;20060;-80
2021/12/19 10:46:37;;;;;;;102.38;64.38;;;;;;;0.64;100.00;100601.09;5027731;28;20185;-79
2021/12/19 10:49:05;;;;;;;101.50;62.63;;;;;;;0.69;100.00;100599.19;5030773;28;20041;-81
2021/12/19 10:51:37;;;;;;;105.97;63.95;;;;;;;0.73;100.00;100590.34;5030461;28;20046;-79
2021/12/19 10:54:04;;;;;;;100.20;64.20;;;;;;;0.78;100.00;100570.25;5030858;28;20022;-78
2021/12/19 10:56:36;;;;;;;102.32;61.47;;;;;;;0.83;100.00;100565.72;5030570;28;20038;-80
2021/12/19 10:59:10;;;;;;;101.03;64.22;;;;;;;0.88;100.00;100557.78;5031099;28;20052;-79
2021/12/19 11:01:59;;;;;;;100.28;61.95;;;;;;;0.92;100.00;100548.97;5030380;28;20065;-78
2021/12/19 11:04:25;;;;;;;102.10;62.65;;;;;;;0.98;100.00;100549.56;5025879;28;20075;-80
2021/12/19 11:06:58;;;;;;;100.40;61.38;;;;;;;1.02;100.00;100545.94;5030185;28;20481;-79
2021/12/19 11:09:29;;;;;;;100.88;60.17;;;;;;;1.09;100.00;100536.16;5029542;28;20144;-80
2021/12/19 11:11:56;;;;;;;101.20;63.53;;;;;;;1.16;100.00;100532.44;5030461;28;20025;-79
2021/12/19 11:14:31;;;;;;;103.75;64.53;;;;;;;1.23;100.00;100524.34;5029883;28;20025;-80
2021/12/19 11:17:04;;;;;;;109.25;65.78;;;;;;;1.31;100.00;100520.56;5031465;28;20076;-81
2021/12/19 11:19:30;;;;;;;104.75;63.50;;;;;;;1.37;100.00;100515.13;5032330;28;20037;-79
2021/12/19 11:21:56;;;;;;;101.72;63.67;;;;;;;1.46;100.00;100514.75;5032717;28;20037;-80
2021/12/19 11:24:24;;;;;;;104.18;63.72;;;;;;;1.54;100.00;100515.28;5030653;28;20462;-81
2021/12/19 11:26:55;;;;;;;109.68;64.18;;;;;;;1.63;100.00;100513.16;4996764;28;20374;-76
2021/12/19 11:29:24;;;;;;;105.63;62.47;;;;;;;1.75;100.00;100509.19;5019206;28;20129;-79
2021/12/19 11:31:59;;;;;;;108.88;64.00;;;;;;;1.87;100.00;100500.88;5034087;22;20417;-86
2021/12/19 11:34:56;;;;;;;107.60;64.72;;;;;;;2.01;100.00;100495.91;5023745;28;20093;-89
2021/12/19 11:37:36;;;;;;;99.78;62.08;;;;;;;2.19;100.00;100485.59;5015338;28;20034;-86
2021/12/19 11:40:04;;;;;;;99.32;64.82;;;;;;;2.39;100.00;100483.81;5042166;28;20038;-84
2021/12/19 11:42:34;;;;;;;106.82;65.65;;;;;;;2.62;100.00;100480.19;5024881;28;20117;-86
2021/12/19 11:48:00;;;;;;;106.32;64.45;;;;;;;3.08;100.00;100457.16;5030719;28;20034;-87
2021/12/19 11:50:33;;;;;;;108.68;66.72;;;;;;;3.26;100.00;100445.84;5023621;28;20139;-82
2021/12/19 11:53:35;;;;;;;104.93;65.75;;;;;;;3.47;100.00;100443.97;5003181;28;20057;-87
2021/12/19 11:56:09;;;;;;;97.13;61.08;;;;;;;3.65;100.00;100435.19;5022359;28;20242;-86
2021/12/19 11:58:38;;;;;;;102.43;60.97;;;;;;;3.81;100.00;100437.88;5002067;28;20029;-86
2021/12/19 12:01:10;;;;;;;94.85;61.58;;;;;;;3.95;100.00;100430.16;5004877;28;20489;-81
2021/12/19 12:04:23;;;;;;;100.07;62.53;;;;;;;4.13;100.00;100423.97;4999427;28;20501;-81
2021/12/19 12:06:56;;;;;;;93.60;60.83;;;;;;;4.27;100.00;100416.25;4973124;28;20077;-82
2021/12/19 12:09:26;;;;;;;98.03;61.95;;;;;;;4.40;100.00;100404.22;5021721;28;20033;-81
2021/12/19 12:12:02;;;;;;;97.07;62.95;;;;;;;4.52;100.00;100400.94;5019832;28;20089;-80